createdAt,value
2018-04-23T00:00:27.552Z,60.54
2018-04-23T00:02:56.601Z,60.04
2018-04-23T00:05:29.870Z,60.87
2018-04-23T00:08:02.581Z,60.03
2018-04-23T00:10:34.999Z,60.76
2018-04-23T00:13:06.960Z,60.29
2018-04-23T00:15:39.490Z,60.26
2018-04-23T00:18:08.524Z,60.60
2018-04-23T00:20:43.441Z,60.65
2018-04-23T00:23:15.590Z,60.29
2018-04-23T00:25:49.234Z,59.53
2018-04-23T00:28:21.231Z,59.55
2018-04-23T00:30:55.053Z,59.51
2018-04-23T00:33:29.648Z,59.34
2018-04-23T00:36:02.300Z,59.22
2018-04-23T00:38:35.551Z,60.08
2018-04-23T00:41:04.605Z,60.62
2018-04-23T00:43:37.688Z,60.09
2018-04-23T00:46:10.485Z,59.33
2018-04-23T00:48:45.131Z,59.62
2018-04-23T00:51:17.364Z,59.75
2018-04-23T00:56:26.986Z,59.50
2018-04-23T00:58:59.191Z,59.88
2018-04-23T01:01:33.289Z,60.14
2018-04-23T01:04:05.673Z,59.70
2018-04-23T01:06:37.891Z,59.57
2018-04-23T01:09:10.106Z,60.61
2018-04-23T01:11:42.828Z,60.33
2018-04-23T01:14:14.928Z,60.50
2018-04-23T01:16:46.526Z,60.58
2018-04-23T01:19:19.673Z,60.66
2018-04-23T01:21:52.296Z,60.83
2018-04-23T01:24:23.983Z,61.90
2018-04-23T01:26:55.538Z,61.90
2018-04-23T01:29:28.500Z,62.44
2018-04-23T01:32:01.273Z,62.56
2018-04-23T01:34:31.881Z,62.49
2018-04-23T01:37:04.848Z,62.13
2018-04-23T01:42:09.847Z,62.74
2018-04-23T01:44:42.553Z,62.64
2018-04-23T01:47:16.285Z,63.25
2018-04-23T01:49:49.334Z,64.71
2018-04-23T01:54:57.682Z,63.94
2018-04-23T01:57:30.418Z,63.07
2018-04-23T02:00:02.743Z,62.14
2018-04-23T02:02:37.981Z,61.84
2018-04-23T02:05:07.023Z,61.85
2018-04-23T02:07:36.594Z,61.84
2018-04-23T02:10:05.658Z,61.17
2018-04-23T02:12:36.473Z,61.77
2018-04-23T02:15:06.444Z,61.96
2018-04-23T02:17:36.413Z,62.33
2018-04-23T02:20:05.480Z,61.84
2018-04-23T02:22:35.157Z,62.42
2018-04-23T02:25:04.243Z,62.52
2018-04-23T02:27:33.645Z,62.78
2018-04-23T02:30:02.808Z,63.06
2018-04-23T02:32:33.870Z,62.36
2018-04-23T02:35:03.260Z,62.79
2018-04-23T02:40:09.026Z,63.21
2018-04-23T02:42:39.444Z,62.65
2018-04-23T02:45:09.466Z,62.83
2018-04-23T02:47:50.272Z,62.46
2018-04-23T02:50:20.266Z,61.94
2018-04-23T02:55:25.876Z,61.46
2018-04-23T02:57:55.004Z,61.53
2018-04-23T03:00:24.451Z,62.02
2018-04-23T03:02:53.510Z,62.22
2018-04-23T03:05:23.658Z,62.71
2018-04-23T03:07:52.706Z,63.06
2018-04-23T03:10:22.074Z,63.52
2018-04-23T03:12:51.122Z,63.36
2018-04-23T03:15:20.178Z,64.15
2018-04-23T03:17:50.304Z,64.23
2018-04-23T03:20:19.358Z,63.60
2018-04-23T03:22:48.426Z,64.32
2018-04-23T03:25:17.491Z,64.02
2018-04-23T03:30:36.840Z,65.71
2018-04-23T03:33:05.904Z,65.28
2018-04-23T03:35:34.971Z,65.44
2018-04-23T03:38:04.834Z,65.24
2018-04-23T03:40:33.892Z,65.09
2018-04-23T03:43:03.602Z,65.21
2018-04-23T03:48:08.369Z,64.96
2018-04-23T03:50:37.455Z,65.20
2018-04-23T03:53:06.520Z,65.25
2018-04-23T03:55:35.586Z,64.38
2018-04-23T03:58:04.678Z,64.23
2018-04-23T04:00:35.278Z,63.89
2018-04-23T04:03:05.630Z,63.73
2018-04-23T04:08:10.377Z,62.91
2018-04-23T04:10:39.810Z,63.78
2018-04-23T04:13:26.754Z,63.51
2018-04-23T04:16:14.876Z,63.38
2018-04-23T04:18:46.768Z,63.39
2018-04-23T04:23:51.669Z,62.34
2018-04-23T04:26:21.634Z,62.33
2018-04-23T04:28:50.717Z,62.28
2018-04-23T04:31:19.762Z,62.80
2018-04-23T04:33:48.838Z,62.85
2018-04-23T04:38:54.406Z,63.64
2018-04-23T04:44:01.969Z,64.44
2018-04-23T04:49:09.437Z,63.83
2018-04-23T04:51:38.511Z,64.17
2018-04-23T04:54:16.622Z,63.55
2018-04-23T04:56:46.650Z,64.31
2018-04-23T05:01:52.279Z,62.55
2018-04-23T05:04:21.336Z,62.68
2018-04-23T05:06:51.165Z,62.41
2018-04-23T05:09:20.246Z,62.17
2018-04-23T05:11:49.341Z,62.34
2018-04-23T05:14:18.393Z,62.28
2018-04-23T05:16:47.455Z,61.85
2018-04-23T05:21:53.544Z,61.21
2018-04-23T05:24:23.900Z,61.04
2018-04-23T05:26:53.568Z,60.39
2018-04-23T05:31:58.833Z,59.11
2018-04-23T05:34:28.096Z,59.15
2018-04-23T05:36:57.169Z,58.96
2018-04-23T05:39:26.785Z,58.88
2018-04-23T05:41:55.867Z,59.29
2018-04-23T05:44:25.240Z,58.25
2018-04-23T05:46:54.281Z,58.01
2018-04-23T05:49:23.898Z,57.67
2018-04-23T05:51:52.940Z,57.60
2018-04-23T05:54:22.235Z,56.99
2018-04-23T05:56:51.464Z,57.04
2018-04-23T05:59:21.149Z,57.08
2018-04-23T06:01:51.030Z,56.37
2018-04-23T06:04:20.087Z,55.21
2018-04-23T06:09:25.583Z,55.23
2018-04-23T06:11:54.934Z,57.11
2018-04-23T06:14:24.070Z,57.16
2018-04-23T06:19:29.541Z,55.51
2018-04-23T06:22:00.622Z,54.30
2018-04-23T06:24:32.089Z,53.96
2018-04-23T06:27:04.292Z,53.76
2018-04-23T06:29:36.917Z,53.09
2018-04-23T06:32:09.670Z,52.85
2018-04-23T06:34:41.064Z,52.80
2018-04-23T06:37:13.913Z,50.45
2018-04-23T06:39:46.603Z,50.65
2018-04-23T06:42:17.955Z,50.05
2018-04-23T06:44:50.601Z,50.11
2018-04-23T06:47:22.376Z,49.40
2018-04-23T06:49:55.137Z,49.16
2018-04-23T06:52:27.680Z,49.93
2018-04-23T06:54:59.876Z,49.08
2018-04-23T06:57:33.692Z,47.76
2018-04-23T07:00:05.220Z,48.44
2018-04-23T07:02:37.921Z,48.43
2018-04-23T07:05:11.003Z,49.08
2018-04-23T07:07:43.123Z,51.08
2018-04-23T07:10:14.881Z,51.55
2018-04-23T07:15:24.795Z,51.07
2018-04-23T07:17:57.507Z,50.11
2018-04-23T07:20:30.072Z,47.62
2018-04-23T07:23:03.421Z,46.81
2018-04-23T07:28:12.789Z,46.32
2018-04-23T07:30:44.119Z,45.98
2018-04-23T07:33:15.883Z,45.55
2018-04-23T07:38:24.775Z,45.28
2018-04-23T07:40:57.580Z,45.35
2018-04-23T07:43:34.449Z,45.07
2018-04-23T07:46:07.222Z,45.35
2018-04-23T07:48:39.927Z,46.36
2018-04-23T07:51:12.371Z,45.97
2018-04-23T07:53:45.027Z,45.63
2018-04-23T07:56:18.093Z,44.46
2018-04-23T08:01:27.297Z,44.93
2018-04-23T08:03:59.768Z,45.30
2018-04-23T08:06:32.437Z,44.22
2018-04-23T08:09:06.288Z,43.39
2018-04-23T08:11:39.414Z,41.44
2018-04-23T08:14:11.584Z,40.94
2018-04-23T08:16:45.218Z,39.39
2018-04-23T08:19:18.164Z,38.25
2018-04-23T08:21:52.556Z,38.67
2018-04-23T08:24:24.467Z,37.62
2018-04-23T08:26:59.723Z,37.09
2018-04-23T08:29:32.123Z,36.74
2018-04-23T08:32:04.666Z,36.38
2018-04-23T08:34:37.027Z,36.30
2018-04-23T08:37:08.189Z,35.79
2018-04-23T08:39:40.510Z,37.30
2018-04-23T08:42:12.011Z,37.51
2018-04-23T08:44:44.988Z,37.97
2018-04-23T08:47:18.862Z,37.87
2018-04-23T08:49:53.572Z,36.25
2018-04-23T08:52:26.277Z,36.35
2018-04-23T08:54:58.358Z,35.65
2018-04-23T09:00:07.048Z,36.98
2018-04-23T09:02:39.765Z,37.49
2018-04-23T09:05:11.596Z,34.65
2018-04-23T09:10:22.846Z,34.67
2018-04-23T09:12:55.444Z,32.47
2018-04-23T09:15:28.449Z,33.38
2018-04-23T09:18:01.012Z,32.73
2018-04-23T09:20:32.640Z,32.76
2018-04-23T09:23:04.435Z,30.98
2018-04-23T09:25:37.207Z,32.78
2018-04-23T09:28:09.869Z,32.76
2018-04-23T09:30:42.767Z,31.71
2018-04-23T09:33:16.238Z,29.61
2018-04-23T09:35:49.201Z,29.41
2018-04-23T09:38:19.008Z,30.27
2018-04-23T09:40:48.062Z,31.21
2018-04-23T09:43:18.153Z,31.63
2018-04-23T09:45:47.230Z,32.20
2018-04-23T09:48:17.050Z,34.22
2018-04-23T09:50:57.078Z,32.63
2018-04-23T09:53:27.070Z,33.56
2018-04-23T09:55:56.122Z,33.83
2018-04-23T09:58:25.941Z,33.68
2018-04-23T10:00:55.028Z,33.50
2018-04-23T10:03:26.093Z,33.57
2018-04-23T10:08:30.959Z,32.41
2018-04-23T10:11:00.019Z,33.99
2018-04-23T10:13:29.777Z,33.50
2018-04-23T10:15:58.834Z,33.61
2018-04-23T10:18:28.809Z,34.91
2018-04-23T10:20:57.893Z,35.55
2018-04-23T10:26:02.888Z,33.97
2018-04-23T10:28:31.965Z,34.29
2018-04-23T10:31:01.624Z,33.62
2018-04-23T10:33:30.667Z,33.42
2018-04-23T10:35:59.726Z,34.08
2018-04-23T10:41:04.623Z,32.62
2018-04-23T10:43:33.690Z,33.45
2018-04-23T10:46:03.266Z,31.61
2018-04-23T10:48:32.323Z,31.77
2018-04-23T10:51:01.513Z,31.89
2018-04-23T10:53:36.952Z,31.27
2018-04-23T10:56:05.971Z,31.67
2018-04-23T10:58:35.690Z,29.16
2018-04-23T11:01:04.762Z,28.83
2018-04-23T11:03:34.770Z,27.72
2018-04-23T11:06:03.815Z,30.26
2018-04-23T11:11:10.161Z,28.99
2018-04-23T11:13:39.851Z,28.74
2018-04-23T11:16:10.810Z,27.85
2018-04-23T11:18:39.860Z,26.78
2018-04-23T11:21:09.839Z,26.17
2018-04-23T11:23:39.530Z,25.86
2018-04-23T11:26:08.589Z,26.93
2018-04-23T11:28:38.363Z,26.44
2018-04-23T11:31:07.409Z,26.31
2018-04-23T11:33:37.383Z,27.21
2018-04-23T11:36:06.425Z,27.54
2018-04-23T11:38:35.497Z,27.93
2018-04-23T11:41:05.134Z,27.94
2018-04-23T11:43:34.196Z,27.60
2018-04-23T11:46:04.003Z,29.64
2018-04-23T11:48:33.050Z,28.05
2018-04-23T11:51:03.783Z,29.06
2018-04-23T11:53:32.845Z,29.36
2018-04-23T11:56:11.851Z,27.55
2018-04-23T12:01:17.750Z,26.84
2018-04-23T12:03:46.796Z,25.94
2018-04-23T12:06:16.586Z,25.98
2018-04-23T12:08:45.653Z,26.67
2018-04-23T12:11:15.276Z,24.79
2018-04-23T12:13:44.373Z,26.88
2018-04-23T12:16:14.162Z,27.92
2018-04-23T12:18:43.453Z,25.83
2018-04-23T12:21:12.512Z,25.74
2018-04-23T12:26:17.525Z,27.74
2018-04-23T12:28:46.610Z,26.86
2018-04-23T12:31:15.668Z,25.99
2018-04-23T12:36:21.876Z,25.80
2018-04-23T12:38:51.048Z,26.96
2018-04-23T12:41:20.102Z,27.37
2018-04-23T12:43:49.437Z,27.67
2018-04-23T12:46:19.548Z,27.17
2018-04-23T12:51:24.429Z,27.65
2018-04-23T12:53:54.354Z,26.20
2018-04-23T12:58:59.347Z,26.72
2018-04-23T13:01:28.533Z,26.46
2018-04-23T13:03:57.591Z,25.65
2018-04-23T13:06:27.271Z,26.90
2018-04-23T13:08:56.327Z,29.44
2018-04-23T13:14:02.180Z,29.10
2018-04-23T13:16:31.250Z,29.46
2018-04-23T13:19:00.275Z,30.41
2018-04-23T13:21:30.234Z,31.11
2018-04-23T13:23:59.314Z,32.89
2018-04-23T13:26:28.377Z,35.71
2018-04-23T13:28:58.011Z,36.57
2018-04-23T13:31:27.083Z,37.91
2018-04-23T13:33:56.127Z,35.41
2018-04-23T13:39:00.975Z,33.37
2018-04-23T13:41:31.242Z,33.70
2018-04-23T13:44:00.281Z,31.55
2018-04-23T13:46:29.710Z,32.52
2018-04-23T13:48:58.781Z,36.23
2018-04-23T13:51:28.041Z,38.36
2018-04-23T13:56:37.095Z,41.15
2018-04-23T13:59:10.257Z,42.14
2018-04-23T14:01:46.036Z,42.18
2018-04-23T14:04:20.295Z,43.18
2018-04-23T14:09:30.002Z,40.80
2018-04-23T14:12:02.523Z,38.77
2018-04-23T14:14:35.711Z,39.78
2018-04-23T14:17:08.503Z,41.15
2018-04-23T14:19:41.306Z,41.45
2018-04-23T14:22:14.039Z,42.69
2018-04-23T14:24:47.210Z,45.05
2018-04-23T14:29:58.827Z,39.82
2018-04-23T14:32:32.331Z,40.03
2018-04-23T14:35:04.990Z,41.98
2018-04-23T14:37:38.386Z,40.77
2018-04-23T14:40:10.529Z,40.76
2018-04-23T14:42:43.611Z,41.20
2018-04-23T14:45:16.672Z,40.46
2018-04-23T14:53:02.805Z,42.21
2018-04-23T14:55:36.081Z,44.47
2018-04-23T14:58:08.654Z,47.02
2018-04-23T15:03:18.716Z,49.07
2018-04-23T15:05:53.629Z,49.51
2018-04-23T15:08:28.027Z,48.93
2018-04-23T15:13:32.778Z,50.28
2018-04-23T15:16:02.275Z,47.92
2018-04-23T15:21:07.137Z,50.66
2018-04-23T15:26:16.874Z,51.53
2018-04-23T15:28:45.936Z,52.68
2018-04-23T15:31:15.617Z,51.96
2018-04-23T15:33:44.637Z,51.92
2018-04-23T15:36:13.698Z,51.25
2018-04-23T15:38:43.551Z,52.21
2018-04-23T15:41:12.606Z,52.16
2018-04-23T15:43:42.882Z,52.07
2018-04-23T15:46:11.930Z,53.69
2018-04-23T15:48:42.028Z,52.30
2018-04-23T15:51:11.303Z,49.44
2018-04-23T15:53:41.356Z,50.37
2018-04-23T15:56:10.419Z,49.92
2018-04-23T15:58:39.748Z,50.24
2018-04-23T16:01:09.416Z,49.62
2018-04-23T16:03:38.447Z,50.61
2018-04-23T16:06:07.807Z,50.83
2018-04-23T16:08:36.842Z,52.12
2018-04-23T16:11:08.394Z,53.79
2018-04-23T16:13:37.458Z,55.51
2018-04-23T16:16:07.226Z,57.23
2018-04-23T16:18:36.293Z,56.02
2018-04-23T16:21:05.574Z,57.32
2018-04-23T16:23:34.631Z,56.96
2018-04-23T16:26:03.678Z,57.28
2018-04-23T16:28:32.758Z,57.88
2018-04-23T16:31:01.803Z,59.65
2018-04-23T16:33:35.516Z,57.97
2018-04-23T16:36:04.577Z,58.58
2018-04-23T16:38:34.669Z,59.72
2018-04-23T16:41:03.720Z,60.15
2018-04-23T16:46:08.755Z,60.69
2018-04-23T16:48:37.820Z,60.45
2018-04-23T16:51:07.565Z,60.30
2018-04-23T16:53:36.906Z,59.26
2018-04-23T16:56:05.962Z,60.64
2018-04-23T16:58:35.763Z,61.92
2018-04-23T17:01:04.873Z,61.85
2018-04-23T17:03:34.486Z,62.26
2018-04-23T17:06:03.540Z,62.94
2018-04-23T17:08:33.414Z,63.37
2018-04-23T17:11:10.297Z,63.20
2018-04-23T17:16:15.710Z,63.47
2018-04-23T17:18:44.774Z,64.42
2018-04-23T17:21:13.823Z,64.48
2018-04-23T17:23:42.890Z,64.21
2018-04-23T17:26:12.242Z,64.31
2018-04-23T17:33:53.811Z,66.03
2018-04-23T17:36:23.616Z,65.72
2018-04-23T17:38:52.678Z,65.03
2018-04-23T17:41:23.252Z,66.42
2018-04-23T17:43:52.293Z,65.13
2018-04-23T17:46:21.370Z,66.19
2018-04-23T17:48:50.690Z,66.83
2018-04-23T17:51:19.823Z,67.11
2018-04-23T17:56:24.673Z,67.10
2018-04-23T17:58:53.820Z,67.95
2018-04-23T18:01:23.783Z,67.67
2018-04-23T18:03:52.825Z,67.25
2018-04-23T18:06:23.361Z,68.01
2018-04-23T18:08:55.271Z,68.08
2018-04-23T18:11:25.261Z,68.73
2018-04-23T18:14:04.622Z,69.89
2018-04-23T18:16:33.679Z,69.79
2018-04-23T18:19:02.772Z,70.14
2018-04-23T18:21:32.348Z,70.01
2018-04-23T18:24:01.782Z,71.02
2018-04-23T18:26:33.720Z,69.81
2018-04-23T18:29:03.836Z,69.57
2018-04-23T18:31:34.206Z,70.11
2018-04-23T18:34:03.266Z,70.84
2018-04-23T18:36:33.945Z,69.78
2018-04-23T18:39:05.375Z,70.56
2018-04-23T18:41:40.504Z,70.61
2018-04-23T18:44:10.507Z,70.83
2018-04-23T18:46:39.863Z,70.68
2018-04-23T18:49:08.910Z,71.16
2018-04-23T18:51:40.811Z,71.00
2018-04-23T18:54:10.415Z,70.14
2018-04-23T18:56:39.484Z,70.03
2018-04-23T18:59:08.534Z,69.27
2018-04-23T19:01:40.017Z,69.71
2018-04-23T19:04:10.046Z,69.05
2018-04-23T19:06:39.845Z,69.98
2018-04-23T19:09:08.888Z,69.53
2018-04-23T19:14:14.471Z,68.77
2018-04-23T19:16:44.944Z,70.20
2018-04-23T19:19:19.800Z,70.09
2018-04-23T19:21:50.092Z,70.48
2018-04-23T19:24:23.482Z,70.61
2018-04-23T19:26:58.826Z,71.22
2018-04-23T19:29:32.858Z,70.68
2018-04-23T19:32:05.620Z,70.28
2018-04-23T19:34:41.227Z,70.63
2018-04-23T19:37:13.837Z,70.32
2018-04-23T19:39:46.492Z,70.54
2018-04-23T19:42:18.462Z,70.92
2018-04-23T19:44:49.328Z,70.67
2018-04-23T19:47:25.316Z,70.37
2018-04-23T19:49:58.782Z,69.99
2018-04-23T19:52:31.806Z,69.58
2018-04-23T19:55:05.711Z,69.61
2018-04-23T19:57:37.771Z,69.57
2018-04-23T20:00:09.258Z,69.21
2018-04-23T20:02:42.423Z,69.21
2018-04-23T20:05:13.698Z,69.33
2018-04-23T20:07:44.704Z,69.31
2018-04-23T20:12:52.138Z,72.30
2018-04-23T20:15:28.484Z,73.48
2018-04-23T20:18:01.081Z,75.67
2018-04-23T20:20:33.090Z,76.96
2018-04-23T20:23:16.063Z,78.74
2018-04-23T20:25:48.607Z,79.93
2018-04-23T20:31:05.718Z,80.07
2018-04-23T20:33:40.298Z,80.42
2018-04-23T20:36:15.734Z,81.33
2018-04-23T20:38:48.111Z,82.86
2018-04-23T20:43:56.492Z,80.08
2018-04-23T20:46:28.508Z,79.34
2018-04-23T20:49:00.639Z,79.90
2018-04-23T20:51:32.076Z,79.96
2018-04-23T20:54:02.991Z,80.65
2018-04-23T20:56:34.595Z,82.49
2018-04-23T20:59:06.870Z,83.03
2018-04-23T21:01:38.542Z,84.35
2018-04-23T21:04:10.363Z,86.17
2018-04-23T21:06:42.459Z,87.73
2018-04-23T21:09:14.156Z,87.99
2018-04-23T21:11:46.114Z,88.34
2018-04-23T21:14:19.661Z,89.33
2018-04-23T21:16:50.801Z,89.09
2018-04-23T21:19:23.878Z,88.50
2018-04-23T21:21:56.287Z,87.89
2018-04-23T21:24:29.173Z,88.82
2018-04-23T21:32:14.443Z,89.44
2018-04-23T21:34:46.674Z,90.60
2018-04-23T21:37:18.042Z,90.11
2018-04-23T21:39:50.210Z,91.18
2018-04-23T21:42:21.333Z,92.24
2018-04-23T21:44:51.611Z,90.90
2018-04-23T21:47:59.411Z,90.63
2018-04-23T21:50:31.697Z,90.07
2018-04-23T21:58:20.103Z,90.57
2018-04-23T22:00:51.757Z,91.31
2018-04-23T22:03:24.663Z,91.70
2018-04-23T22:05:57.734Z,92.09
2018-04-23T22:08:30.354Z,93.37
2018-04-23T22:11:01.156Z,93.80
2018-04-23T22:13:33.425Z,93.88
2018-04-23T22:16:05.242Z,93.42
2018-04-23T22:18:38.159Z,93.07
2018-04-23T22:23:47.506Z,93.98
2018-04-23T22:26:19.449Z,93.74
2018-04-23T22:28:52.739Z,93.59
2018-04-23T22:31:25.012Z,95.00
2018-04-23T22:33:57.409Z,96.06
2018-04-23T22:36:28.889Z,95.66
2018-04-23T22:39:02.987Z,95.76
2018-04-23T22:41:32.016Z,97.69
2018-04-23T22:44:01.435Z,97.17
2018-04-23T22:46:30.478Z,97.76
2018-04-23T22:48:59.533Z,97.76
2018-04-23T22:51:28.602Z,97.78
2018-04-23T22:56:37.456Z,98.11
2018-04-23T22:59:10.732Z,98.31
2018-04-23T23:01:45.068Z,97.47
2018-04-23T23:04:17.571Z,97.62
2018-04-23T23:06:50.433Z,98.55
2018-04-23T23:09:23.339Z,99.05
2018-04-23T23:11:56.057Z,99.46
2018-04-23T23:14:27.528Z,99.26
2018-04-23T23:17:00.616Z,98.82
2018-04-23T23:19:33.299Z,97.96
2018-04-23T23:22:05.428Z,98.99
2018-04-23T23:24:38.815Z,98.88
2018-04-23T23:32:27.328Z,97.56
2018-04-23T23:34:59.355Z,97.29
2018-04-23T23:37:30.804Z,97.62
2018-04-23T23:40:04.039Z,98.26
2018-04-23T23:42:36.525Z,98.29
2018-04-23T23:45:10.054Z,98.24
2018-04-23T23:47:42.446Z,98.76
2018-04-23T23:50:12.649Z,99.06
2018-04-23T23:52:45.430Z,99.23
2018-04-23T23:55:19.230Z,98.53
2018-04-23T23:57:52.345Z,97.95
